createdAt,value
2022-08-26T19:38:24.169Z,98909.59
2022-08-26T19:41:37.633Z,98905.66
2022-08-26T19:44:58.986Z,98896.63
2022-08-26T19:48:02.901Z,98902.06
2022-08-26T19:51:06.225Z,98904.25
2022-08-26T19:54:09.170Z,98903.59
2022-08-26T19:57:12.322Z,98919.25
2022-08-26T20:00:18.586Z,98917.97
2022-08-26T20:03:23.858Z,98915.50
2022-08-26T20:06:26.576Z,98910.03
2022-08-26T20:09:30.790Z,98921.47
2022-08-26T20:12:35.641Z,98927.09
2022-08-26T20:15:38.588Z,98922.59
2022-08-26T20:19:01.659Z,98923.59
2022-08-26T20:22:05.354Z,98923.94
2022-08-26T20:25:08.731Z,98923.47
2022-08-26T20:28:12.640Z,98929.22
2022-08-26T20:31:15.444Z,98923.75
2022-08-26T20:34:19.870Z,98938.41
2022-08-26T20:37:22.558Z,98937.47
2022-08-26T20:40:25.851Z,98929.09
2022-08-26T20:43:28.513Z,98940.44
2022-08-26T20:46:31.817Z,98947.69
2022-08-26T20:49:35.369Z,98959.22
2022-08-26T20:52:38.266Z,98959.91
2022-08-26T20:55:40.957Z,98956.87
2022-08-26T20:58:43.938Z,98957.69
2022-08-26T21:01:47.968Z,98959.97
2022-08-26T21:04:51.010Z,98955.84
2022-08-26T21:07:53.854Z,98955.03
2022-08-26T21:10:57.344Z,98958.13
2022-08-26T21:14:16.630Z,98960.44
2022-08-26T21:17:20.192Z,98957.69
2022-08-26T21:20:24.095Z,98961.59
2022-08-26T21:23:29.286Z,98956.25
2022-08-26T21:26:32.404Z,98949.87
2022-08-26T21:29:36.656Z,98952.81
2022-08-26T21:32:39.862Z,98943.34
2022-08-26T21:35:51.701Z,98957.00
2022-08-26T21:38:59.898Z,98954.38
2022-08-26T21:42:02.958Z,98957.59
2022-08-26T21:45:06.694Z,98942.88
2022-08-26T21:48:10.302Z,98963.50
2022-08-26T21:51:15.223Z,98961.62
2022-08-26T21:54:18.314Z,98953.16
2022-08-26T21:57:20.986Z,98960.84
2022-08-26T22:00:23.891Z,98970.69
2022-08-26T22:03:27.936Z,98969.00
2022-08-26T22:06:39.045Z,98958.72
2022-08-26T22:09:41.982Z,98953.34
2022-08-26T22:12:47.602Z,98956.53
2022-08-26T22:15:50.694Z,98951.72
2022-08-26T22:18:53.377Z,98954.06
2022-08-26T22:21:56.887Z,98956.06
2022-08-26T22:24:59.962Z,98953.00
2022-08-26T22:28:03.211Z,98957.75
2022-08-26T22:31:11.365Z,98939.44
2022-08-26T22:34:17.418Z,98948.56
2022-08-26T22:37:20.069Z,98939.16
2022-08-26T22:40:23.640Z,98948.87
2022-08-26T22:43:28.487Z,98947.75
2022-08-26T22:46:32.972Z,98922.75
2022-08-26T22:49:35.481Z,98930.97
2022-08-26T22:52:38.402Z,98930.56
2022-08-26T22:55:41.617Z,98936.53
2022-08-26T22:58:45.073Z,98930.62
2022-08-26T23:01:47.780Z,98932.00
2022-08-26T23:04:51.233Z,98939.16
2022-08-26T23:07:54.066Z,98922.88
2022-08-26T23:10:56.982Z,98912.69
2022-08-26T23:14:02.905Z,98921.50
2022-08-26T23:17:14.245Z,98924.84
2022-08-26T23:20:18.104Z,98911.87
2022-08-26T23:23:21.109Z,98914.50
2022-08-26T23:26:23.864Z,98913.28
2022-08-26T23:29:27.524Z,98912.16
2022-08-26T23:32:30.323Z,98915.38
2022-08-26T23:35:33.283Z,98911.63
2022-08-26T23:38:35.904Z,98908.88
2022-08-26T23:41:40.155Z,98913.28
2022-08-26T23:44:42.779Z,98910.56
2022-08-26T23:47:46.154Z,98906.72
2022-08-26T23:51:07.725Z,98904.31
2022-08-26T23:54:10.975Z,98911.34
2022-08-26T23:57:13.544Z,98904.09
